sensor_id;sensor_type;location;lat;lon;timestamp;temperature;humidity
50969;DHT22;36982;51.474;7.228;2023-05-07T00:02:25;15.00;98.40
50969;DHT22;36982;51.474;7.228;2023-05-07T00:04:51;15.10;96.30
50969;DHT22;36982;51.474;7.228;2023-05-07T00:07:17;15.20;94.00
50969;DHT22;36982;51.474;7.228;2023-05-07T00:09:43;15.30;92.50
50969;DHT22;36982;51.474;7.228;2023-05-07T00:12:08;15.30;92.70
50969;DHT22;36982;51.474;7.228;2023-05-07T00:14:34;15.20;93.70
50969;DHT22;36982;51.474;7.228;2023-05-07T00:17:00;15.10;95.70
50969;DHT22;36982;51.474;7.228;2023-05-07T00:19:25;15.20;95.60
50969;DHT22;36982;51.474;7.228;2023-05-07T00:21:51;15.30;95.20
50969;DHT22;36982;51.474;7.228;2023-05-07T00:24:19;15.20;94.10
50969;DHT22;36982;51.474;7.228;2023-05-07T00:26:44;15.10;95.60
50969;DHT22;36982;51.474;7.228;2023-05-07T00:29:10;15.10;97.50
50969;DHT22;36982;51.474;7.228;2023-05-07T00:31:36;15.10;96.40
50969;DHT22;36982;51.474;7.228;2023-05-07T00:34:01;15.20;95.30
50969;DHT22;36982;51.474;7.228;2023-05-07T00:36:27;15.20;95.80
50969;DHT22;36982;51.474;7.228;2023-05-07T00:38:54;15.20;95.40
50969;DHT22;36982;51.474;7.228;2023-05-07T00:41:20;15.30;95.50
50969;DHT22;36982;51.474;7.228;2023-05-07T00:43:45;15.20;95.70
50969;DHT22;36982;51.474;7.228;2023-05-07T00:46:11;15.20;95.50
50969;DHT22;36982;51.474;7.228;2023-05-07T00:48:38;15.00;96.70
50969;DHT22;36982;51.474;7.228;2023-05-07T00:51:03;15.00;98.10
50969;DHT22;36982;51.474;7.228;2023-05-07T00:53:30;15.10;97.30
50969;DHT22;36982;51.474;7.228;2023-05-07T00:55:56;15.00;97.40
50969;DHT22;36982;51.474;7.228;2023-05-07T00:58:22;15.00;97.80
50969;DHT22;36982;51.474;7.228;2023-05-07T01:00:47;15.00;97.70
50969;DHT22;36982;51.474;7.228;2023-05-07T01:03:13;15.00;98.60
50969;DHT22;36982;51.474;7.228;2023-05-07T01:05:39;15.00;98.70
50969;DHT22;36982;51.474;7.228;2023-05-07T01:08:06;14.90;98.20
50969;DHT22;36982;51.474;7.228;2023-05-07T01:10:32;14.90;99.10
50969;DHT22;36982;51.474;7.228;2023-05-07T01:12:58;14.90;98.20
50969;DHT22;36982;51.474;7.228;2023-05-07T01:15:24;14.80;99.70
50969;DHT22;36982;51.474;7.228;2023-05-07T01:17:50;14.70;99.90
50969;DHT22;36982;51.474;7.228;2023-05-07T01:20:18;14.80;99.40
50969;DHT22;36982;51.474;7.228;2023-05-07T01:22:44;14.80;99.80
50969;DHT22;36982;51.474;7.228;2023-05-07T01:25:10;14.90;99.40
50969;DHT22;36982;51.474;7.228;2023-05-07T01:27:36;14.90;98.90
50969;DHT22;36982;51.474;7.228;2023-05-07T01:30:06;14.70;99.90
50969;DHT22;36982;51.474;7.228;2023-05-07T01:32:39;14.70;99.90
50969;DHT22;36982;51.474;7.228;2023-05-07T01:35:09;14.70;99.90
50969;DHT22;36982;51.474;7.228;2023-05-07T01:37:36;14.70;99.90
50969;DHT22;36982;51.474;7.228;2023-05-07T01:40:03;14.60;99.90
50969;DHT22;36982;51.474;7.228;2023-05-07T01:42:30;14.60;99.90
50969;DHT22;36982;51.474;7.228;2023-05-07T01:44:56;14.70;99.90
50969;DHT22;36982;51.474;7.228;2023-05-07T01:47:23;14.80;99.90
50969;DHT22;36982;51.474;7.228;2023-05-07T01:49:50;14.80;99.50
50969;DHT22;36982;51.474;7.228;2023-05-07T01:52:16;14.80;99.90
50969;DHT22;36982;51.474;7.228;2023-05-07T01:54:41;14.80;99.00
50969;DHT22;36982;51.474;7.228;2023-05-07T01:57:08;14.90;99.70
50969;DHT22;36982;51.474;7.228;2023-05-07T01:59:33;14.90;98.90
50969;DHT22;36982;51.474;7.228;2023-05-07T02:01:59;14.80;99.20
50969;DHT22;36982;51.474;7.228;2023-05-07T02:04:26;14.80;99.90
50969;DHT22;36982;51.474;7.228;2023-05-07T02:06:51;14.80;99.80
50969;DHT22;36982;51.474;7.228;2023-05-07T02:09:18;14.80;99.50
50969;DHT22;36982;51.474;7.228;2023-05-07T02:11:44;14.70;99.50
50969;DHT22;36982;51.474;7.228;2023-05-07T02:14:10;14.60;99.90
50969;DHT22;36982;51.474;7.228;2023-05-07T02:16:36;14.60;99.90
50969;DHT22;36982;51.474;7.228;2023-05-07T02:19:01;14.60;99.90
50969;DHT22;36982;51.474;7.228;2023-05-07T02:21:27;14.60;99.90
50969;DHT22;36982;51.474;7.228;2023-05-07T02:23:53;14.60;99.90
50969;DHT22;36982;51.474;7.228;2023-05-07T02:26:19;14.60;99.90
50969;DHT22;36982;51.474;7.228;2023-05-07T02:28:46;14.60;99.90
50969;DHT22;36982;51.474;7.228;2023-05-07T02:31:12;14.60;99.90
50969;DHT22;36982;51.474;7.228;2023-05-07T02:33:38;14.60;99.90
50969;DHT22;36982;51.474;7.228;2023-05-07T02:36:11;14.50;99.90
50969;DHT22;36982;51.474;7.228;2023-05-07T02:38:37;14.50;99.90
50969;DHT22;36982;51.474;7.228;2023-05-07T02:41:03;14.30;99.90
50969;DHT22;36982;51.474;7.228;2023-05-07T02:43:29;14.40;99.90
50969;DHT22;36982;51.474;7.228;2023-05-07T02:46:05;14.60;99.90
50969;DHT22;36982;51.474;7.228;2023-05-07T02:48:31;14.60;99.90
50969;DHT22;36982;51.474;7.228;2023-05-07T02:50:57;14.60;99.90
50969;DHT22;36982;51.474;7.228;2023-05-07T02:53:23;14.60;99.90
50969;DHT22;36982;51.474;7.228;2023-05-07T02:55:58;14.50;99.90
50969;DHT22;36982;51.474;7.228;2023-05-07T02:58:24;14.50;99.90
50969;DHT22;36982;51.474;7.228;2023-05-07T03:00:50;14.40;99.90
50969;DHT22;36982;51.474;7.228;2023-05-07T03:03:16;14.40;99.90
50969;DHT22;36982;51.474;7.228;2023-05-07T03:05:42;14.40;99.90
50969;DHT22;36982;51.474;7.228;2023-05-07T03:08:09;14.40;99.90
50969;DHT22;36982;51.474;7.228;2023-05-07T03:10:36;14.30;99.90
50969;DHT22;36982;51.474;7.228;2023-05-07T03:13:01;14.40;99.90
50969;DHT22;36982;51.474;7.228;2023-05-07T03:15:27;14.40;99.90
50969;DHT22;36982;51.474;7.228;2023-05-07T03:17:53;14.40;99.90
50969;DHT22;36982;51.474;7.228;2023-05-07T03:20:19;14.20;99.90
50969;DHT22;36982;51.474;7.228;2023-05-07T03:22:44;14.20;99.90
50969;DHT22;36982;51.474;7.228;2023-05-07T03:25:10;14.30;99.90
50969;DHT22;36982;51.474;7.228;2023-05-07T03:27:36;14.20;99.90
50969;DHT22;36982;51.474;7.228;2023-05-07T03:30:02;14.20;99.90
50969;DHT22;36982;51.474;7.228;2023-05-07T03:32:28;14.20;99.90
50969;DHT22;36982;51.474;7.228;2023-05-07T03:34:53;14.10;99.90
50969;DHT22;36982;51.474;7.228;2023-05-07T03:37:19;14.20;99.90
50969;DHT22;36982;51.474;7.228;2023-05-07T03:39:45;14.30;99.90
50969;DHT22;36982;51.474;7.228;2023-05-07T03:42:10;14.20;99.90
50969;DHT22;36982;51.474;7.228;2023-05-07T03:44:36;14.30;99.90
50969;DHT22;36982;51.474;7.228;2023-05-07T03:47:02;14.30;99.90
50969;DHT22;36982;51.474;7.228;2023-05-07T03:49:28;14.30;99.90
50969;DHT22;36982;51.474;7.228;2023-05-07T03:51:54;14.30;99.90
50969;DHT22;36982;51.474;7.228;2023-05-07T03:54:19;14.30;99.90
50969;DHT22;36982;51.474;7.228;2023-05-07T03:56:45;14.30;99.90
50969;DHT22;36982;51.474;7.228;2023-05-07T03:59:12;14.20;99.90
50969;DHT22;36982;51.474;7.228;2023-05-07T04:01:38;14.10;99.90
50969;DHT22;36982;51.474;7.228;2023-05-07T04:04:04;14.10;99.90
50969;DHT22;36982;51.474;7.228;2023-05-07T04:06:30;14.10;99.90
50969;DHT22;36982;51.474;7.228;2023-05-07T04:08:56;14.10;99.90
50969;DHT22;36982;51.474;7.228;2023-05-07T04:11:22;14.00;99.90
50969;DHT22;36982;51.474;7.228;2023-05-07T04:13:48;13.90;99.90
50969;DHT22;36982;51.474;7.228;2023-05-07T04:16:13;13.80;99.90
50969;DHT22;36982;51.474;7.228;2023-05-07T04:18:39;13.80;99.90
50969;DHT22;36982;51.474;7.228;2023-05-07T04:21:05;13.80;99.90
50969;DHT22;36982;51.474;7.228;2023-05-07T04:23:31;13.80;99.90
50969;DHT22;36982;51.474;7.228;2023-05-07T04:25:56;13.70;99.90
50969;DHT22;36982;51.474;7.228;2023-05-07T04:28:23;13.80;99.90
50969;DHT22;36982;51.474;7.228;2023-05-07T04:30:48;13.90;99.90
50969;DHT22;36982;51.474;7.228;2023-05-07T04:33:15;13.90;99.90
50969;DHT22;36982;51.474;7.228;2023-05-07T04:35:43;13.90;99.90
50969;DHT22;36982;51.474;7.228;2023-05-07T04:38:09;13.80;99.90
50969;DHT22;36982;51.474;7.228;2023-05-07T04:40:36;13.80;99.90
50969;DHT22;36982;51.474;7.228;2023-05-07T04:43:02;13.70;99.90
50969;DHT22;36982;51.474;7.228;2023-05-07T04:45:27;13.70;99.90
50969;DHT22;36982;51.474;7.228;2023-05-07T04:47:53;13.80;99.90
50969;DHT22;36982;51.474;7.228;2023-05-07T04:50:22;14.00;99.90
50969;DHT22;36982;51.474;7.228;2023-05-07T04:52:49;14.00;99.90
50969;DHT22;36982;51.474;7.228;2023-05-07T04:55:16;14.20;99.90
50969;DHT22;36982;51.474;7.228;2023-05-07T04:57:41;14.30;99.90
50969;DHT22;36982;51.474;7.228;2023-05-07T05:00:07;14.30;99.90
50969;DHT22;36982;51.474;7.228;2023-05-07T05:02:36;14.30;99.90
50969;DHT22;36982;51.474;7.228;2023-05-07T05:05:02;14.30;99.90
50969;DHT22;36982;51.474;7.228;2023-05-07T05:07:28;14.40;99.90
50969;DHT22;36982;51.474;7.228;2023-05-07T05:09:54;14.50;99.90
50969;DHT22;36982;51.474;7.228;2023-05-07T05:12:20;14.50;99.90
50969;DHT22;36982;51.474;7.228;2023-05-07T05:14:46;14.60;99.90
50969;DHT22;36982;51.474;7.228;2023-05-07T05:17:12;14.70;99.90
50969;DHT22;36982;51.474;7.228;2023-05-07T05:19:38;14.80;99.90
50969;DHT22;36982;51.474;7.228;2023-05-07T05:22:04;14.90;99.90
50969;DHT22;36982;51.474;7.228;2023-05-07T05:24:30;15.10;99.90
50969;DHT22;36982;51.474;7.228;2023-05-07T05:26:56;15.20;99.90
50969;DHT22;36982;51.474;7.228;2023-05-07T05:29:22;15.30;99.90
50969;DHT22;36982;51.474;7.228;2023-05-07T05:31:48;15.40;99.90
50969;DHT22;36982;51.474;7.228;2023-05-07T05:34:13;15.30;99.90
50969;DHT22;36982;51.474;7.228;2023-05-07T05:36:39;15.40;99.90
50969;DHT22;36982;51.474;7.228;2023-05-07T05:39:05;15.20;99.90
50969;DHT22;36982;51.474;7.228;2023-05-07T05:41:31;15.20;99.90
50969;DHT22;36982;51.474;7.228;2023-05-07T05:43:57;15.20;99.90
50969;DHT22;36982;51.474;7.228;2023-05-07T05:46:22;15.30;99.90
50969;DHT22;36982;51.474;7.228;2023-05-07T05:48:48;15.40;99.90
50969;DHT22;36982;51.474;7.228;2023-05-07T05:51:13;15.90;99.90
50969;DHT22;36982;51.474;7.228;2023-05-07T05:53:39;16.40;98.20
50969;DHT22;36982;51.474;7.228;2023-05-07T05:56:05;16.80;94.20
50969;DHT22;36982;51.474;7.228;2023-05-07T05:58:31;17.10;93.50
50969;DHT22;36982;51.474;7.228;2023-05-07T06:00:57;17.30;90.90
50969;DHT22;36982;51.474;7.228;2023-05-07T06:03:23;17.50;88.40
50969;DHT22;36982;51.474;7.228;2023-05-07T06:05:49;17.40;48.10
50969;DHT22;36982;51.474;7.228;2023-05-07T06:08:14;17.20;46.00
50969;DHT22;36982;51.474;7.228;2023-05-07T06:10:41;17.40;59.70
50969;DHT22;36982;51.474;7.228;2023-05-07T06:13:07;17.40;38.40
50969;DHT22;36982;51.474;7.228;2023-05-07T06:15:33;17.30;41.20
50969;DHT22;36982;51.474;7.228;2023-05-07T06:17:58;17.30;44.30
50969;DHT22;36982;51.474;7.228;2023-05-07T06:20:24;17.30;47.00
50969;DHT22;36982;51.474;7.228;2023-05-07T06:22:50;17.40;40.20
50969;DHT22;36982;51.474;7.228;2023-05-07T06:25:16;17.40;38.20
50969;DHT22;36982;51.474;7.228;2023-05-07T06:27:41;17.70;39.00
50969;DHT22;36982;51.474;7.228;2023-05-07T06:30:08;17.50;28.80
50969;DHT22;36982;51.474;7.228;2023-05-07T06:32:34;17.40;34.10
50969;DHT22;36982;51.474;7.228;2023-05-07T06:35:03;17.50;40.80
50969;DHT22;36982;51.474;7.228;2023-05-07T06:37:29;17.60;26.30
50969;DHT22;36982;51.474;7.228;2023-05-07T06:39:55;17.70;25.60
50969;DHT22;36982;51.474;7.228;2023-05-07T06:42:20;17.60;25.00
50969;DHT22;36982;51.474;7.228;2023-05-07T06:44:46;17.40;28.40
50969;DHT22;36982;51.474;7.228;2023-05-07T06:47:12;17.20;36.40
50969;DHT22;36982;51.474;7.228;2023-05-07T06:49:38;17.40;26.70
50969;DHT22;36982;51.474;7.228;2023-05-07T06:52:03;17.40;26.50
50969;DHT22;36982;51.474;7.228;2023-05-07T06:54:29;17.30;27.70
50969;DHT22;36982;51.474;7.228;2023-05-07T06:56:55;17.30;26.20
50969;DHT22;36982;51.474;7.228;2023-05-07T06:59:20;17.40;29.40
50969;DHT22;36982;51.474;7.228;2023-05-07T07:01:46;17.60;19.20
50969;DHT22;36982;51.474;7.228;2023-05-07T07:04:12;17.60;21.20
50969;DHT22;36982;51.474;7.228;2023-05-07T07:06:37;17.70;17.50
50969;DHT22;36982;51.474;7.228;2023-05-07T07:09:03;17.70;12.50
50969;DHT22;36982;51.474;7.228;2023-05-07T07:11:29;17.50;18.50
50969;DHT22;36982;51.474;7.228;2023-05-07T07:13:54;17.40;28.50
50969;DHT22;36982;51.474;7.228;2023-05-07T07:16:21;17.40;32.40
50969;DHT22;36982;51.474;7.228;2023-05-07T07:18:47;17.40;30.70
50969;DHT22;36982;51.474;7.228;2023-05-07T07:21:13;17.50;27.40
50969;DHT22;36982;51.474;7.228;2023-05-07T07:23:39;17.50;27.60
50969;DHT22;36982;51.474;7.228;2023-05-07T07:26:05;17.60;32.40
50969;DHT22;36982;51.474;7.228;2023-05-07T07:28:32;17.70;28.30
50969;DHT22;36982;51.474;7.228;2023-05-07T07:30:57;17.80;21.80
50969;DHT22;36982;51.474;7.228;2023-05-07T07:33:23;17.80;16.30
50969;DHT22;36982;51.474;7.228;2023-05-07T07:35:49;17.80;21.70
50969;DHT22;36982;51.474;7.228;2023-05-07T07:38:15;17.80;19.80
50969;DHT22;36982;51.474;7.228;2023-05-07T07:40:40;17.70;24.50
50969;DHT22;36982;51.474;7.228;2023-05-07T07:43:06;17.60;25.70
50969;DHT22;36982;51.474;7.228;2023-05-07T07:45:32;17.60;30.00
50969;DHT22;36982;51.474;7.228;2023-05-07T07:47:57;17.60;36.80
50969;DHT22;36982;51.474;7.228;2023-05-07T07:50:23;17.60;37.60
50969;DHT22;36982;51.474;7.228;2023-05-07T07:52:49;17.60;41.50
50969;DHT22;36982;51.474;7.228;2023-05-07T07:55:15;17.70;41.80
50969;DHT22;36982;51.474;7.228;2023-05-07T07:57:46;17.60;45.00
50969;DHT22;36982;51.474;7.228;2023-05-07T08:00:12;17.80;41.60
50969;DHT22;36982;51.474;7.228;2023-05-07T08:02:38;17.80;31.00
50969;DHT22;36982;51.474;7.228;2023-05-07T08:05:04;17.80;39.10
50969;DHT22;36982;51.474;7.228;2023-05-07T08:07:29;17.60;44.10
50969;DHT22;36982;51.474;7.228;2023-05-07T08:09:55;17.70;47.10
50969;DHT22;36982;51.474;7.228;2023-05-07T08:12:21;17.80;39.80
50969;DHT22;36982;51.474;7.228;2023-05-07T08:14:47;17.70;40.50
50969;DHT22;36982;51.474;7.228;2023-05-07T08:17:12;17.60;42.40
50969;DHT22;36982;51.474;7.228;2023-05-07T08:19:41;17.60;38.60
50969;DHT22;36982;51.474;7.228;2023-05-07T08:22:07;17.60;36.20
50969;DHT22;36982;51.474;7.228;2023-05-07T08:24:32;17.70;31.70
50969;DHT22;36982;51.474;7.228;2023-05-07T08:26:58;17.90;29.30
50969;DHT22;36982;51.474;7.228;2023-05-07T08:29:24;18.00;31.30
50969;DHT22;36982;51.474;7.228;2023-05-07T08:31:49;17.90;26.20
50969;DHT22;36982;51.474;7.228;2023-05-07T08:34:15;18.10;22.70
50969;DHT22;36982;51.474;7.228;2023-05-07T08:36:41;18.30;13.70
50969;DHT22;36982;51.474;7.228;2023-05-07T08:39:09;18.50;4.50
50969;DHT22;36982;51.474;7.228;2023-05-07T08:41:35;18.70;1.00
50969;DHT22;36982;51.474;7.228;2023-05-07T08:44:02;18.60;1.00
50969;DHT22;36982;51.474;7.228;2023-05-07T08:46:31;18.50;5.70
50969;DHT22;36982;51.474;7.228;2023-05-07T08:48:56;18.60;1.00
50969;DHT22;36982;51.474;7.228;2023-05-07T08:51:22;18.70;1.00
50969;DHT22;36982;51.474;7.228;2023-05-07T08:53:49;19.00;1.00
50969;DHT22;36982;51.474;7.228;2023-05-07T08:56:16;19.10;1.00
50969;DHT22;36982;51.474;7.228;2023-05-07T08:58:43;19.20;1.00
50969;DHT22;36982;51.474;7.228;2023-05-07T09:01:12;19.30;1.00
50969;DHT22;36982;51.474;7.228;2023-05-07T09:03:39;19.10;1.00
50969;DHT22;36982;51.474;7.228;2023-05-07T09:06:05;19.00;1.00
50969;DHT22;36982;51.474;7.228;2023-05-07T09:08:32;19.00;1.00
50969;DHT22;36982;51.474;7.228;2023-05-07T09:10:59;19.00;1.00
50969;DHT22;36982;51.474;7.228;2023-05-07T09:13:25;19.20;1.00
50969;DHT22;36982;51.474;7.228;2023-05-07T09:15:50;19.20;1.00
50969;DHT22;36982;51.474;7.228;2023-05-07T09:18:16;19.10;1.00
50969;DHT22;36982;51.474;7.228;2023-05-07T09:20:42;19.10;1.00
50969;DHT22;36982;51.474;7.228;2023-05-07T09:23:08;19.30;1.00
50969;DHT22;36982;51.474;7.228;2023-05-07T09:25:35;19.20;1.00
50969;DHT22;36982;51.474;7.228;2023-05-07T09:28:02;19.30;1.00
50969;DHT22;36982;51.474;7.228;2023-05-07T09:30:29;19.20;1.00
50969;DHT22;36982;51.474;7.228;2023-05-07T09:33:00;19.10;1.00
50969;DHT22;36982;51.474;7.228;2023-05-07T09:35:26;19.10;1.00
50969;DHT22;36982;51.474;7.228;2023-05-07T09:38:00;19.20;1.00
50969;DHT22;36982;51.474;7.228;2023-05-07T09:40:28;19.50;1.00
50969;DHT22;36982;51.474;7.228;2023-05-07T09:42:54;19.60;1.00
50969;DHT22;36982;51.474;7.228;2023-05-07T09:45:26;19.50;1.00
50969;DHT22;36982;51.474;7.228;2023-05-07T09:47:57;19.50;1.00
50969;DHT22;36982;51.474;7.228;2023-05-07T09:50:30;19.60;1.00
50969;DHT22;36982;51.474;7.228;2023-05-07T09:52:58;19.60;1.00
50969;DHT22;36982;51.474;7.228;2023-05-07T09:55:24;19.70;1.00
50969;DHT22;36982;51.474;7.228;2023-05-07T09:57:52;19.70;1.00
50969;DHT22;36982;51.474;7.228;2023-05-07T10:00:22;19.80;1.00
50969;DHT22;36982;51.474;7.228;2023-05-07T10:02:49;19.80;1.00
50969;DHT22;36982;51.474;7.228;2023-05-07T10:05:21;19.90;1.00
50969;DHT22;36982;51.474;7.228;2023-05-07T10:07:48;20.00;1.00
50969;DHT22;36982;51.474;7.228;2023-05-07T10:10:14;20.00;1.00
50969;DHT22;36982;51.474;7.228;2023-05-07T10:12:41;20.00;99.90
50969;DHT22;36982;51.474;7.228;2023-05-07T10:15:11;19.90;99.90
50969;DHT22;36982;51.474;7.228;2023-05-07T10:17:40;20.20;99.90
50969;DHT22;36982;51.474;7.228;2023-05-07T10:20:07;20.30;99.90
50969;DHT22;36982;51.474;7.228;2023-05-07T10:22:43;20.40;99.90
50969;DHT22;36982;51.474;7.228;2023-05-07T10:25:30;20.40;99.90
50969;DHT22;36982;51.474;7.228;2023-05-07T10:28:01;20.60;99.90
50969;DHT22;36982;51.474;7.228;2023-05-07T10:33:05;20.60;99.90
50969;DHT22;36982;51.474;7.228;2023-05-07T10:35:42;20.60;99.90
50969;DHT22;36982;51.474;7.228;2023-05-07T10:38:09;20.60;99.90
50969;DHT22;36982;51.474;7.228;2023-05-07T10:40:35;20.60;99.90
50969;DHT22;36982;51.474;7.228;2023-05-07T10:43:03;20.60;99.90
50969;DHT22;36982;51.474;7.228;2023-05-07T10:45:30;20.60;99.90
50969;DHT22;36982;51.474;7.228;2023-05-07T10:48:16;20.60;99.90
50969;DHT22;36982;51.474;7.228;2023-05-07T10:50:45;20.50;99.90
50969;DHT22;36982;51.474;7.228;2023-05-07T10:55:43;20.60;99.90
50969;DHT22;36982;51.474;7.228;2023-05-07T11:00:47;21.00;99.90
50969;DHT22;36982;51.474;7.228;2023-05-07T11:03:13;21.00;99.90
50969;DHT22;36982;51.474;7.228;2023-05-07T11:05:41;21.20;99.90
50969;DHT22;36982;51.474;7.228;2023-05-07T11:08:07;21.30;99.90
50969;DHT22;36982;51.474;7.228;2023-05-07T11:10:55;21.20;99.90
50969;DHT22;36982;51.474;7.228;2023-05-07T11:13:41;21.30;99.90
50969;DHT22;36982;51.474;7.228;2023-05-07T11:16:21;21.00;94.20
50969;DHT22;36982;51.474;7.228;2023-05-07T11:18:52;20.70;74.90
50969;DHT22;36982;51.474;7.228;2023-05-07T11:21:38;20.50;98.30
50969;DHT22;36982;51.474;7.228;2023-05-07T11:24:08;20.60;99.90
50969;DHT22;36982;51.474;7.228;2023-05-07T11:26:57;20.70;99.90
50969;DHT22;36982;51.474;7.228;2023-05-07T11:29:34;20.70;99.90
50969;DHT22;36982;51.474;7.228;2023-05-07T11:32:00;20.80;99.90
50969;DHT22;36982;51.474;7.228;2023-05-07T11:34:28;20.90;99.90
50969;DHT22;36982;51.474;7.228;2023-05-07T11:36:55;20.90;99.90
50969;DHT22;36982;51.474;7.228;2023-05-07T11:39:32;20.90;99.90
50969;DHT22;36982;51.474;7.228;2023-05-07T11:42:01;21.00;99.90
50969;DHT22;36982;51.474;7.228;2023-05-07T11:44:43;20.90;99.90
50969;DHT22;36982;51.474;7.228;2023-05-07T11:47:17;20.70;99.90
50969;DHT22;36982;51.474;7.228;2023-05-07T11:49:46;20.60;99.90
50969;DHT22;36982;51.474;7.228;2023-05-07T11:52:13;20.40;99.90
50969;DHT22;36982;51.474;7.228;2023-05-07T11:54:38;20.40;99.90
50969;DHT22;36982;51.474;7.228;2023-05-07T11:57:04;20.40;99.90
50969;DHT22;36982;51.474;7.228;2023-05-07T11:59:38;20.50;99.90
50969;DHT22;36982;51.474;7.228;2023-05-07T12:02:06;20.50;99.90
50969;DHT22;36982;51.474;7.228;2023-05-07T12:04:31;20.60;99.90
50969;DHT22;36982;51.474;7.228;2023-05-07T12:06:57;20.60;99.90
50969;DHT22;36982;51.474;7.228;2023-05-07T12:09:23;20.70;99.90
50969;DHT22;36982;51.474;7.228;2023-05-07T12:11:49;20.90;99.90
50969;DHT22;36982;51.474;7.228;2023-05-07T12:14:14;20.80;99.90
50969;DHT22;36982;51.474;7.228;2023-05-07T12:16:43;20.80;99.90
50969;DHT22;36982;51.474;7.228;2023-05-07T12:19:11;20.80;99.90
50969;DHT22;36982;51.474;7.228;2023-05-07T12:21:40;20.80;99.90
50969;DHT22;36982;51.474;7.228;2023-05-07T12:24:06;20.60;99.90
50969;DHT22;36982;51.474;7.228;2023-05-07T12:26:32;20.80;99.90
50969;DHT22;36982;51.474;7.228;2023-05-07T12:28:58;20.80;99.90
50969;DHT22;36982;51.474;7.228;2023-05-07T12:31:25;20.90;99.90
50969;DHT22;36982;51.474;7.228;2023-05-07T12:33:52;20.90;99.90
50969;DHT22;36982;51.474;7.228;2023-05-07T12:36:18;21.10;99.90
50969;DHT22;36982;51.474;7.228;2023-05-07T12:38:43;21.10;99.90
50969;DHT22;36982;51.474;7.228;2023-05-07T12:41:10;20.80;99.90
50969;DHT22;36982;51.474;7.228;2023-05-07T12:43:37;20.80;99.90
50969;DHT22;36982;51.474;7.228;2023-05-07T12:46:06;20.90;99.90
50969;DHT22;36982;51.474;7.228;2023-05-07T12:48:32;20.90;99.90
50969;DHT22;36982;51.474;7.228;2023-05-07T12:50:59;21.00;99.90
50969;DHT22;36982;51.474;7.228;2023-05-07T12:53:26;20.80;99.90
50969;DHT22;36982;51.474;7.228;2023-05-07T12:55:57;20.90;99.90
50969;DHT22;36982;51.474;7.228;2023-05-07T13:00:53;20.90;99.90
50969;DHT22;36982;51.474;7.228;2023-05-07T13:05:48;20.70;99.90
50969;DHT22;36982;51.474;7.228;2023-05-07T13:08:33;20.70;99.90
50969;DHT22;36982;51.474;7.228;2023-05-07T13:11:00;20.60;99.90
50969;DHT22;36982;51.474;7.228;2023-05-07T13:13:33;20.70;99.90
50969;DHT22;36982;51.474;7.228;2023-05-07T13:15:59;20.50;99.90
50969;DHT22;36982;51.474;7.228;2023-05-07T13:18:26;20.40;99.90
50969;DHT22;36982;51.474;7.228;2023-05-07T13:20:52;20.40;99.90
50969;DHT22;36982;51.474;7.228;2023-05-07T13:23:18;20.20;99.90
50969;DHT22;36982;51.474;7.228;2023-05-07T13:25:43;20.30;99.90
50969;DHT22;36982;51.474;7.228;2023-05-07T13:28:09;20.40;99.90
50969;DHT22;36982;51.474;7.228;2023-05-07T13:30:35;20.40;99.90
50969;DHT22;36982;51.474;7.228;2023-05-07T13:33:01;20.50;99.90
50969;DHT22;36982;51.474;7.228;2023-05-07T13:35:27;20.60;99.90
50969;DHT22;36982;51.474;7.228;2023-05-07T13:37:52;20.60;99.90
50969;DHT22;36982;51.474;7.228;2023-05-07T13:40:20;20.60;99.90
50969;DHT22;36982;51.474;7.228;2023-05-07T13:42:46;20.60;99.90
50969;DHT22;36982;51.474;7.228;2023-05-07T13:45:12;20.50;99.90
50969;DHT22;36982;51.474;7.228;2023-05-07T13:47:40;20.50;99.90
50969;DHT22;36982;51.474;7.228;2023-05-07T13:50:07;20.60;99.90
50969;DHT22;36982;51.474;7.228;2023-05-07T13:52:33;20.60;99.90
50969;DHT22;36982;51.474;7.228;2023-05-07T13:54:59;20.60;99.90
50969;DHT22;36982;51.474;7.228;2023-05-07T13:57:25;20.40;99.90
50969;DHT22;36982;51.474;7.228;2023-05-07T13:59:50;20.50;99.90
50969;DHT22;36982;51.474;7.228;2023-05-07T14:02:16;20.60;99.90
50969;DHT22;36982;51.474;7.228;2023-05-07T14:04:42;20.60;99.90
50969;DHT22;36982;51.474;7.228;2023-05-07T14:07:07;20.60;99.90
50969;DHT22;36982;51.474;7.228;2023-05-07T14:09:33;20.50;99.90
50969;DHT22;36982;51.474;7.228;2023-05-07T14:12:02;20.50;99.90
50969;DHT22;36982;51.474;7.228;2023-05-07T14:14:28;20.40;99.90
50969;DHT22;36982;51.474;7.228;2023-05-07T14:16:53;20.40;99.90
50969;DHT22;36982;51.474;7.228;2023-05-07T14:19:19;20.40;99.90
50969;DHT22;36982;51.474;7.228;2023-05-07T14:21:45;20.40;99.90
50969;DHT22;36982;51.474;7.228;2023-05-07T14:24:10;20.40;99.90
50969;DHT22;36982;51.474;7.228;2023-05-07T14:26:36;20.30;99.90
50969;DHT22;36982;51.474;7.228;2023-05-07T14:29:03;20.10;99.90
50969;DHT22;36982;51.474;7.228;2023-05-07T14:31:28;20.00;99.90
50969;DHT22;36982;51.474;7.228;2023-05-07T14:33:54;20.00;99.90
50969;DHT22;36982;51.474;7.228;2023-05-07T14:36:20;20.20;99.90
50969;DHT22;36982;51.474;7.228;2023-05-07T14:38:47;20.30;99.90
50969;DHT22;36982;51.474;7.228;2023-05-07T14:41:12;20.30;99.90
50969;DHT22;36982;51.474;7.228;2023-05-07T14:43:38;20.40;99.90
50969;DHT22;36982;51.474;7.228;2023-05-07T14:46:04;20.60;99.90
50969;DHT22;36982;51.474;7.228;2023-05-07T14:48:29;20.70;99.90
50969;DHT22;36982;51.474;7.228;2023-05-07T14:50:55;20.70;99.90
50969;DHT22;36982;51.474;7.228;2023-05-07T14:53:22;20.60;99.90
50969;DHT22;36982;51.474;7.228;2023-05-07T14:55:48;20.60;99.90
50969;DHT22;36982;51.474;7.228;2023-05-07T14:58:14;20.60;99.90
50969;DHT22;36982;51.474;7.228;2023-05-07T15:00:40;20.60;99.90
50969;DHT22;36982;51.474;7.228;2023-05-07T15:03:08;20.60;99.90
50969;DHT22;36982;51.474;7.228;2023-05-07T15:05:36;20.70;99.90
50969;DHT22;36982;51.474;7.228;2023-05-07T15:08:02;20.60;99.90
50969;DHT22;36982;51.474;7.228;2023-05-07T15:10:28;20.60;99.90
50969;DHT22;36982;51.474;7.228;2023-05-07T15:12:53;20.70;99.90
50969;DHT22;36982;51.474;7.228;2023-05-07T15:15:19;20.70;99.90
50969;DHT22;36982;51.474;7.228;2023-05-07T15:17:45;20.60;99.90
50969;DHT22;36982;51.474;7.228;2023-05-07T15:20:11;20.60;99.90
50969;DHT22;36982;51.474;7.228;2023-05-07T15:22:36;20.60;99.90
50969;DHT22;36982;51.474;7.228;2023-05-07T15:25:03;20.70;99.90
50969;DHT22;36982;51.474;7.228;2023-05-07T15:27:30;20.70;99.90
50969;DHT22;36982;51.474;7.228;2023-05-07T15:29:56;20.60;99.90
50969;DHT22;36982;51.474;7.228;2023-05-07T15:32:22;20.60;99.90
50969;DHT22;36982;51.474;7.228;2023-05-07T15:34:48;20.60;99.90
50969;DHT22;36982;51.474;7.228;2023-05-07T15:37:13;20.80;1.00
50969;DHT22;36982;51.474;7.228;2023-05-07T15:39:39;20.70;1.00
50969;DHT22;36982;51.474;7.228;2023-05-07T15:42:05;20.70;1.00
50969;DHT22;36982;51.474;7.228;2023-05-07T15:44:30;20.60;1.00